createdAt,value
2022-07-25T04:06:48.716Z,100530.66
2022-07-25T04:12:50.919Z,100548.41
2022-07-25T04:18:52.925Z,100550.75
2022-07-25T04:24:55.724Z,100553.03
2022-07-25T04:30:57.806Z,100559.97
2022-07-25T04:36:59.833Z,100567.63
2022-07-25T04:43:03.519Z,100576.13
2022-07-25T04:49:05.721Z,100570.75
2022-07-25T04:55:08.386Z,100568.41
2022-07-25T05:01:10.877Z,100576.88
2022-07-25T05:07:13.145Z,100569.97
2022-07-25T05:13:16.445Z,100575.38
2022-07-25T05:19:18.866Z,100577.97
2022-07-25T05:25:21.216Z,100587.84
2022-07-25T05:31:23.178Z,100578.97
2022-07-25T05:37:26.875Z,100589.25
2022-07-25T05:43:29.428Z,100598.75
2022-07-25T05:49:31.474Z,100591.56
2022-07-25T05:55:33.538Z,100601.47
2022-07-25T06:01:35.607Z,100589.81
2022-07-25T06:07:38.051Z,100585.91
2022-07-25T06:13:40.517Z,100585.81
2022-07-25T06:19:42.722Z,100578.06
2022-07-25T06:25:50.030Z,100588.78
2022-07-25T06:31:52.981Z,100590.28
2022-07-25T06:37:55.440Z,100601.97
2022-07-25T06:43:57.586Z,100612.38
2022-07-25T06:49:59.583Z,100597.41
2022-07-25T06:56:02.774Z,100598.94
2022-07-25T07:02:05.191Z,100603.72
2022-07-25T07:08:08.696Z,100605.53
2022-07-25T07:14:12.401Z,100603.78
2022-07-25T07:20:14.620Z,100602.38
2022-07-25T07:26:17.984Z,100595.94
2022-07-25T07:32:20.118Z,100598.84
2022-07-25T07:38:22.165Z,100598.97
2022-07-25T07:44:24.279Z,100588.16
2022-07-25T07:50:29.833Z,100595.78
2022-07-25T07:56:31.922Z,100591.16
2022-07-25T08:02:43.776Z,100577.25
2022-07-25T08:08:46.318Z,100584.25
2022-07-25T08:14:49.823Z,100590.63
2022-07-25T08:20:52.871Z,100588.88
2022-07-25T08:26:54.886Z,100584.47
2022-07-25T08:33:00.541Z,100586.63
2022-07-25T08:39:03.365Z,100586.63
2022-07-25T08:45:07.172Z,100588.75
2022-07-25T08:51:12.720Z,100573.13
2022-07-25T08:57:16.032Z,100574.31
2022-07-25T09:03:18.144Z,100578.91
2022-07-25T09:09:31.709Z,100574.19
2022-07-25T09:15:36.760Z,100579.44
2022-07-25T09:21:40.693Z,100584.03
2022-07-25T09:27:43.785Z,100571.91
2022-07-25T09:33:51.879Z,100572.91
2022-07-25T09:39:54.425Z,100578.84
2022-07-25T09:45:59.199Z,100574.75
2022-07-25T09:52:03.104Z,100574.84
2022-07-25T09:58:06.203Z,100567.00
2022-07-25T10:04:19.000Z,100544.19
2022-07-25T10:10:25.997Z,100553.94
2022-07-25T10:16:28.245Z,100539.97
2022-07-25T10:23:00.070Z,100532.91
2022-07-25T10:29:09.423Z,100528.84
2022-07-25T10:35:18.775Z,100527.88
2022-07-25T10:41:26.180Z,100520.13
2022-07-25T10:47:28.646Z,100512.09
2022-07-25T10:53:45.459Z,100506.19
2022-07-25T11:00:08.420Z,100501.34
2022-07-25T11:06:15.658Z,100483.22
2022-07-25T11:12:17.788Z,100478.16
2022-07-25T11:18:31.674Z,100477.56
2022-07-25T11:24:40.583Z,100475.22
2022-07-25T11:30:43.804Z,100464.97
2022-07-25T11:36:46.544Z,100461.94
2022-07-25T11:42:52.235Z,100459.72
2022-07-25T11:49:05.142Z,100446.88
2022-07-25T12:08:50.117Z,100428.59
2022-07-25T12:14:52.868Z,100425.28
2022-07-25T12:20:55.932Z,100422.84
2022-07-25T12:26:58.603Z,100414.16
2022-07-25T12:33:01.534Z,100409.50
2022-07-25T12:39:05.405Z,100401.00
2022-07-25T12:45:12.471Z,100385.22
2022-07-25T12:51:14.779Z,100386.22
2022-07-25T12:57:17.119Z,100372.47
2022-07-25T13:03:19.315Z,100364.25
2022-07-25T13:09:23.935Z,100351.22
2022-07-25T13:15:28.917Z,100350.50
2022-07-25T13:21:33.930Z,100339.56
2022-07-25T13:27:37.784Z,100328.81
2022-07-25T13:33:41.701Z,100321.03
2022-07-25T13:39:44.036Z,100320.44
2022-07-25T13:45:46.616Z,100315.69
2022-07-25T13:51:49.097Z,100308.53
2022-07-25T13:57:53.517Z,100312.34
2022-07-25T14:03:56.191Z,100305.44
2022-07-25T14:09:59.178Z,100300.41
2022-07-25T14:16:01.345Z,100303.59
2022-07-25T14:22:03.897Z,100298.72
2022-07-25T14:28:06.034Z,100277.91
2022-07-25T14:34:08.721Z,100266.19
2022-07-25T14:40:11.884Z,100267.16
2022-07-25T14:46:14.421Z,100258.66
2022-07-25T14:52:17.867Z,100254.47
2022-07-25T14:58:20.108Z,100256.34
2022-07-25T15:04:25.286Z,100247.50
2022-07-25T15:10:30.586Z,100236.69
2022-07-25T15:16:32.800Z,100230.09
2022-07-25T15:22:35.574Z,100218.16
2022-07-25T15:28:39.015Z,100211.66
2022-07-25T15:34:41.332Z,100223.31
2022-07-25T15:40:44.834Z,100220.47
2022-07-25T15:46:47.085Z,100214.06
2022-07-25T15:52:49.556Z,100217.69
2022-07-25T15:58:52.123Z,100210.97
2022-07-25T16:04:55.544Z,100217.28
2022-07-25T16:11:00.650Z,100212.69
2022-07-25T16:17:03.226Z,100212.69
2022-07-25T16:23:05.864Z,100219.50
2022-07-25T16:29:07.957Z,100217.34
2022-07-25T16:35:10.223Z,100220.84
2022-07-25T16:41:12.878Z,100220.63
2022-07-25T16:47:14.966Z,100223.28
2022-07-25T16:53:18.359Z,100216.03
2022-07-25T16:59:20.303Z,100217.16
2022-07-25T17:05:22.326Z,100233.13
2022-07-25T17:11:25.719Z,100228.72
2022-07-25T17:17:28.189Z,100228.03
2022-07-25T17:23:30.493Z,100219.78
2022-07-25T17:29:32.713Z,100223.09
2022-07-25T17:35:35.725Z,100227.97
2022-07-25T17:41:39.454Z,100228.94
2022-07-25T17:47:43.529Z,100225.91
2022-07-25T17:53:46.220Z,100231.50
2022-07-25T17:59:50.008Z,100234.97
2022-07-25T18:05:54.126Z,100236.03
2022-07-25T18:12:00.247Z,100243.31
2022-07-25T18:18:02.212Z,100245.94
2022-07-25T18:24:05.095Z,100252.72
2022-07-25T18:30:08.337Z,100251.53
2022-07-25T18:36:10.904Z,100256.25
2022-07-25T18:42:13.352Z,100262.69
2022-07-25T18:48:15.420Z,100261.38
2022-07-25T18:54:17.860Z,100271.97
2022-07-25T19:00:19.884Z,100270.66
2022-07-25T19:06:22.055Z,100270.06
2022-07-25T19:12:26.848Z,100266.44
2022-07-25T19:18:29.629Z,100270.84
2022-07-25T19:24:32.994Z,100267.34
2022-07-25T19:30:35.110Z,100268.47
2022-07-25T19:36:38.076Z,100276.75
2022-07-25T19:42:41.497Z,100274.13
2022-07-25T19:48:43.611Z,100274.66
2022-07-25T19:54:45.808Z,100280.25
2022-07-25T20:00:49.316Z,100274.97
2022-07-25T20:06:51.531Z,100279.78
2022-07-25T20:13:01.462Z,100279.88
2022-07-25T20:19:09.644Z,100281.56
2022-07-25T20:25:14.565Z,100287.84
2022-07-25T20:31:18.698Z,100286.31
2022-07-25T20:37:20.718Z,100279.19
2022-07-25T20:43:23.209Z,100283.44
2022-07-25T20:49:25.251Z,100288.53
2022-07-25T20:55:28.639Z,100286.22
2022-07-25T21:01:31.304Z,100289.34
2022-07-25T21:07:34.253Z,100288.53
2022-07-25T21:13:38.037Z,100298.53
2022-07-25T21:19:40.629Z,100297.69
2022-07-25T21:25:43.199Z,100297.59
2022-07-25T21:31:45.922Z,100298.88
2022-07-25T21:37:48.509Z,100297.38
2022-07-25T21:43:51.192Z,100294.16
2022-07-25T21:50:13.124Z,100289.75
2022-07-25T21:56:16.239Z,100292.28
2022-07-25T22:02:18.663Z,100295.91
2022-07-25T22:08:21.911Z,100289.91
2022-07-25T22:14:24.059Z,100284.19
2022-07-25T22:20:26.745Z,100285.31
2022-07-25T22:26:31.146Z,100294.28
2022-07-25T22:32:33.561Z,100292.28
2022-07-25T22:38:35.755Z,100295.22
2022-07-25T22:44:38.034Z,100308.44
2022-07-25T22:50:41.642Z,100295.47
2022-07-25T22:56:43.742Z,100295.59
2022-07-25T23:02:45.877Z,100289.47
2022-07-25T23:08:48.560Z,100283.09
2022-07-25T23:14:50.716Z,100276.28
2022-07-25T23:20:52.708Z,100279.56
2022-07-25T23:26:58.253Z,100285.91
2022-07-25T23:33:00.206Z,100285.72
2022-07-25T23:39:02.919Z,100273.53
2022-07-25T23:45:07.574Z,100270.81
2022-07-25T23:51:11.548Z,100268.03
2022-07-25T23:57:13.520Z,100265.72
